sensor_id;sensor_type;location;lat;lon;timestamp;pressure;altitude;pressure_sealevel;temperature;humidity
30636;BME280;17400;52.392;9.750;2023-10-19T00:00:32;99408.53;;;8.46;100.00
30636;BME280;17400;52.392;9.750;2023-10-19T00:03:03;99410.59;;;8.44;100.00
30636;BME280;17400;52.392;9.750;2023-10-19T00:05:30;99403.16;;;8.33;100.00
30636;BME280;17400;52.392;9.750;2023-10-19T00:07:59;99403.16;;;8.33;100.00
30636;BME280;17400;52.392;9.750;2023-10-19T00:10:27;99397.78;;;8.33;100.00
30636;BME280;17400;52.392;9.750;2023-10-19T00:13:03;99402.78;;;8.23;100.00
30636;BME280;17400;52.392;9.750;2023-10-19T00:15:32;99400.69;;;8.31;100.00
30636;BME280;17400;52.392;9.750;2023-10-19T00:18:01;99390.34;;;8.28;100.00
30636;BME280;17400;52.392;9.750;2023-10-19T00:20:47;99395.31;;;8.25;100.00
30636;BME280;17400;52.392;9.750;2023-10-19T00:23:20;99391.59;;;8.26;100.00
30636;BME280;17400;52.392;9.750;2023-10-19T00:26:00;99386.22;;;8.19;100.00
30636;BME280;17400;52.392;9.750;2023-10-19T00:28:37;99378.13;;;8.26;100.00
30636;BME280;17400;52.392;9.750;2023-10-19T00:31:06;99380.63;;;8.21;100.00
30636;BME280;17400;52.392;9.750;2023-10-19T00:33:35;99366.13;;;8.15;100.00
30636;BME280;17400;52.392;9.750;2023-10-19T00:36:06;99370.25;;;8.24;100.00
30636;BME280;17400;52.392;9.750;2023-10-19T00:38:35;99367.78;;;8.16;100.00
30636;BME280;17400;52.392;9.750;2023-10-19T00:41:16;99371.38;;;8.03;100.00
30636;BME280;17400;52.392;9.750;2023-10-19T00:43:50;99364.47;;;8.14;100.00
30636;BME280;17400;52.392;9.750;2023-10-19T00:46:24;99355.19;;;8.03;100.00
30636;BME280;17400;52.392;9.750;2023-10-19T00:49:01;99358.50;;;8.05;100.00
30636;BME280;17400;52.392;9.750;2023-10-19T00:51:35;99347.88;;;8.17;100.00
30636;BME280;17400;52.392;9.750;2023-10-19T00:54:11;99340.00;;;8.15;100.00
30636;BME280;17400;52.392;9.750;2023-10-19T00:56:43;99339.22;;;8.01;100.00
30636;BME280;17400;52.392;9.750;2023-10-19T00:59:18;99335.28;;;8.04;100.00
30636;BME280;17400;52.392;9.750;2023-10-19T01:01:50;99334.69;;;8.02;100.00
30636;BME280;17400;52.392;9.750;2023-10-19T01:04:22;99340.69;;;7.97;100.00
30636;BME280;17400;52.392;9.750;2023-10-19T01:06:51;99326.41;;;7.97;100.00
30636;BME280;17400;52.392;9.750;2023-10-19T01:09:32;99318.50;;;8.02;100.00
30636;BME280;17400;52.392;9.750;2023-10-19T01:12:03;99317.25;;;8.05;100.00
30636;BME280;17400;52.392;9.750;2023-10-19T01:15:00;99311.69;;;7.99;100.00
30636;BME280;17400;52.392;9.750;2023-10-19T01:17:29;99300.72;;;7.94;100.00
30636;BME280;17400;52.392;9.750;2023-10-19T01:19:58;99305.88;;;7.96;100.00
30636;BME280;17400;52.392;9.750;2023-10-19T01:22:26;99301.34;;;7.90;100.00
30636;BME280;17400;52.392;9.750;2023-10-19T01:24:55;99297.00;;;7.89;100.00
30636;BME280;17400;52.392;9.750;2023-10-19T01:27:23;99291.84;;;7.80;100.00
30636;BME280;17400;52.392;9.750;2023-10-19T01:29:52;99292.25;;;7.84;100.00
30636;BME280;17400;52.392;9.750;2023-10-19T01:32:20;99272.31;;;7.92;100.00
30636;BME280;17400;52.392;9.750;2023-10-19T01:34:50;99268.81;;;7.91;100.00
30636;BME280;17400;52.392;9.750;2023-10-19T01:37:18;99261.19;;;7.81;100.00
30636;BME280;17400;52.392;9.750;2023-10-19T01:39:47;99257.88;;;7.79;100.00
30636;BME280;17400;52.392;9.750;2023-10-19T01:42:16;99254.13;;;7.80;100.00
30636;BME280;17400;52.392;9.750;2023-10-19T01:44:44;99248.75;;;7.80;100.00
30636;BME280;17400;52.392;9.750;2023-10-19T01:47:12;99246.22;;;7.86;100.00
30636;BME280;17400;52.392;9.750;2023-10-19T01:49:39;99242.06;;;7.90;100.00
30636;BME280;17400;52.392;9.750;2023-10-19T01:52:07;99233.13;;;7.96;100.00
30636;BME280;17400;52.392;9.750;2023-10-19T01:54:37;99242.28;;;7.88;100.00
30636;BME280;17400;52.392;9.750;2023-10-19T01:57:05;99240.28;;;7.77;100.00
30636;BME280;17400;52.392;9.750;2023-10-19T01:59:36;99219.50;;;7.84;100.00
30636;BME280;17400;52.392;9.750;2023-10-19T02:02:04;99225.19;;;7.69;100.00
30636;BME280;17400;52.392;9.750;2023-10-19T02:04:31;99210.66;;;7.77;100.00
30636;BME280;17400;52.392;9.750;2023-10-19T02:07:03;99211.06;;;7.74;100.00
30636;BME280;17400;52.392;9.750;2023-10-19T02:09:30;99214.38;;;7.76;100.00
30636;BME280;17400;52.392;9.750;2023-10-19T02:12:00;99206.25;;;7.82;100.00
30636;BME280;17400;52.392;9.750;2023-10-19T02:14:28;99203.78;;;7.81;100.00
30636;BME280;17400;52.392;9.750;2023-10-19T02:16:59;99206.94;;;7.71;100.00
30636;BME280;17400;52.392;9.750;2023-10-19T02:19:28;99189.88;;;7.84;100.00
30636;BME280;17400;52.392;9.750;2023-10-19T02:21:58;99189.91;;;7.77;100.00
30636;BME280;17400;52.392;9.750;2023-10-19T02:24:26;99178.41;;;7.63;100.00
30636;BME280;17400;52.392;9.750;2023-10-19T02:26:55;99182.75;;;7.58;100.00
30636;BME280;17400;52.392;9.750;2023-10-19T02:29:24;99173.03;;;7.63;100.00
30636;BME280;17400;52.392;9.750;2023-10-19T02:31:52;99177.75;;;7.68;100.00
30636;BME280;17400;52.392;9.750;2023-10-19T02:34:23;99176.16;;;7.54;100.00
30636;BME280;17400;52.392;9.750;2023-10-19T02:36:50;99168.09;;;7.54;100.00
30636;BME280;17400;52.392;9.750;2023-10-19T02:39:18;99169.06;;;7.66;100.00
30636;BME280;17400;52.392;9.750;2023-10-19T02:41:47;99159.50;;;7.70;100.00
30636;BME280;17400;52.392;9.750;2023-10-19T02:44:18;99157.22;;;7.67;100.00
30636;BME280;17400;52.392;9.750;2023-10-19T02:46:49;99153.09;;;7.64;100.00
30636;BME280;17400;52.392;9.750;2023-10-19T02:49:20;99154.97;;;7.64;100.00
30636;BME280;17400;52.392;9.750;2023-10-19T02:51:50;99145.25;;;7.63;100.00
30636;BME280;17400;52.392;9.750;2023-10-19T02:54:20;99152.47;;;7.69;100.00
30636;BME280;17400;52.392;9.750;2023-10-19T02:56:50;99140.25;;;7.66;100.00
30636;BME280;17400;52.392;9.750;2023-10-19T02:59:19;99143.59;;;7.62;100.00
30636;BME280;17400;52.392;9.750;2023-10-19T03:01:49;99138.59;;;7.65;100.00
30636;BME280;17400;52.392;9.750;2023-10-19T03:04:19;99144.44;;;7.62;100.00
30636;BME280;17400;52.392;9.750;2023-10-19T03:06:47;99139.81;;;7.70;100.00
30636;BME280;17400;52.392;9.750;2023-10-19T03:09:17;99144.38;;;7.69;100.00
30636;BME280;17400;52.392;9.750;2023-10-19T03:11:49;99141.66;;;7.76;100.00
30636;BME280;17400;52.392;9.750;2023-10-19T03:14:20;99150.13;;;7.79;100.00
30636;BME280;17400;52.392;9.750;2023-10-19T03:16:47;99144.78;;;7.73;100.00
30636;BME280;17400;52.392;9.750;2023-10-19T03:19:16;99142.94;;;7.66;100.00
30636;BME280;17400;52.392;9.750;2023-10-19T03:21:43;99134.88;;;7.66;100.00
30636;BME280;17400;52.392;9.750;2023-10-19T03:24:16;99134.13;;;7.53;100.00
30636;BME280;17400;52.392;9.750;2023-10-19T03:26:52;99122.47;;;7.59;100.00
30636;BME280;17400;52.392;9.750;2023-10-19T03:29:21;99111.72;;;7.59;100.00
30636;BME280;17400;52.392;9.750;2023-10-19T03:31:58;99113.81;;;7.57;100.00
30636;BME280;17400;52.392;9.750;2023-10-19T03:34:26;99109.41;;;7.62;100.00
30636;BME280;17400;52.392;9.750;2023-10-19T03:36:58;99105.69;;;7.63;100.00
30636;BME280;17400;52.392;9.750;2023-10-19T03:39:33;99106.72;;;7.62;100.00
30636;BME280;17400;52.392;9.750;2023-10-19T03:42:03;99103.63;;;7.59;100.00
30636;BME280;17400;52.392;9.750;2023-10-19T03:44:33;99097.66;;;7.57;100.00
30636;BME280;17400;52.392;9.750;2023-10-19T03:47:11;99096.47;;;7.46;100.00
30636;BME280;17400;52.392;9.750;2023-10-19T03:49:41;99090.84;;;7.54;100.00
30636;BME280;17400;52.392;9.750;2023-10-19T03:52:10;99092.91;;;7.52;100.00
30636;BME280;17400;52.392;9.750;2023-10-19T03:54:48;99089.13;;;7.60;100.00
30636;BME280;17400;52.392;9.750;2023-10-19T03:57:19;99094.06;;;7.63;100.00
30636;BME280;17400;52.392;9.750;2023-10-19T03:59:51;99092.63;;;7.60;100.00
30636;BME280;17400;52.392;9.750;2023-10-19T04:02:23;99086.97;;;7.75;100.00
30636;BME280;17400;52.392;9.750;2023-10-19T04:04:52;99084.22;;;7.82;100.00
30636;BME280;17400;52.392;9.750;2023-10-19T04:07:22;99080.41;;;7.90;100.00
30636;BME280;17400;52.392;9.750;2023-10-19T04:09:53;99083.53;;;7.87;100.00
30636;BME280;17400;52.392;9.750;2023-10-19T04:12:28;99082.91;;;7.91;100.00
30636;BME280;17400;52.392;9.750;2023-10-19T04:14:58;99082.44;;;7.94;100.00
30636;BME280;17400;52.392;9.750;2023-10-19T04:17:36;99081.88;;;7.86;100.00
30636;BME280;17400;52.392;9.750;2023-10-19T04:20:06;99077.16;;;7.81;100.00
30636;BME280;17400;52.392;9.750;2023-10-19T04:22:55;99074.53;;;7.74;100.00
30636;BME280;17400;52.392;9.750;2023-10-19T04:25:24;99066.88;;;7.71;100.00
30636;BME280;17400;52.392;9.750;2023-10-19T04:27:55;99056.09;;;7.71;100.00
30636;BME280;17400;52.392;9.750;2023-10-19T04:30:24;99063.97;;;7.73;100.00
30636;BME280;17400;52.392;9.750;2023-10-19T04:32:53;99062.53;;;7.70;100.00
30636;BME280;17400;52.392;9.750;2023-10-19T04:35:24;99056.16;;;7.64;100.00
30636;BME280;17400;52.392;9.750;2023-10-19T04:37:57;99048.72;;;7.60;100.00
30636;BME280;17400;52.392;9.750;2023-10-19T04:40:25;99052.69;;;7.57;100.00
30636;BME280;17400;52.392;9.750;2023-10-19T04:42:55;99052.56;;;7.45;100.00
30636;BME280;17400;52.392;9.750;2023-10-19T04:45:23;99046.50;;;7.50;100.00
30636;BME280;17400;52.392;9.750;2023-10-19T04:47:51;99043.50;;;7.40;100.00
30636;BME280;17400;52.392;9.750;2023-10-19T04:50:21;99050.00;;;7.57;100.00
30636;BME280;17400;52.392;9.750;2023-10-19T04:52:50;99041.09;;;7.57;100.00
30636;BME280;17400;52.392;9.750;2023-10-19T04:55:18;99043.34;;;7.60;100.00
30636;BME280;17400;52.392;9.750;2023-10-19T04:57:46;99037.13;;;7.59;100.00
30636;BME280;17400;52.392;9.750;2023-10-19T05:00:17;99039.06;;;7.52;100.00
30636;BME280;17400;52.392;9.750;2023-10-19T05:02:47;99025.91;;;7.37;100.00
30636;BME280;17400;52.392;9.750;2023-10-19T05:05:16;99031.38;;;7.24;100.00
30636;BME280;17400;52.392;9.750;2023-10-19T05:07:44;99028.59;;;7.37;100.00
30636;BME280;17400;52.392;9.750;2023-10-19T05:10:13;99024.44;;;7.41;100.00
30636;BME280;17400;52.392;9.750;2023-10-19T05:12:41;99015.31;;;7.42;100.00
30636;BME280;17400;52.392;9.750;2023-10-19T05:15:09;99016.94;;;7.43;100.00
30636;BME280;17400;52.392;9.750;2023-10-19T05:17:38;99014.88;;;7.45;100.00
30636;BME280;17400;52.392;9.750;2023-10-19T05:20:07;99014.66;;;7.47;100.00
30636;BME280;17400;52.392;9.750;2023-10-19T05:22:35;99015.47;;;7.47;100.00
30636;BME280;17400;52.392;9.750;2023-10-19T05:25:04;99019.03;;;7.41;100.00
30636;BME280;17400;52.392;9.750;2023-10-19T05:27:34;99025.63;;;7.45;100.00
30636;BME280;17400;52.392;9.750;2023-10-19T05:30:03;99023.28;;;7.56;100.00
30636;BME280;17400;52.392;9.750;2023-10-19T05:32:36;99015.00;;;7.57;100.00
30636;BME280;17400;52.392;9.750;2023-10-19T05:35:06;99014.19;;;7.50;100.00
30636;BME280;17400;52.392;9.750;2023-10-19T05:37:34;99013.66;;;7.41;100.00
30636;BME280;17400;52.392;9.750;2023-10-19T05:40:03;99021.72;;;7.41;100.00
30636;BME280;17400;52.392;9.750;2023-10-19T05:42:32;99022.31;;;7.43;100.00
30636;BME280;17400;52.392;9.750;2023-10-19T05:45:01;99028.91;;;7.47;100.00
30636;BME280;17400;52.392;9.750;2023-10-19T05:47:32;99036.59;;;7.50;100.00
30636;BME280;17400;52.392;9.750;2023-10-19T05:50:00;99030.00;;;7.46;100.00
30636;BME280;17400;52.392;9.750;2023-10-19T05:52:29;99028.22;;;7.59;100.00
30636;BME280;17400;52.392;9.750;2023-10-19T05:54:58;99031.78;;;7.53;100.00
30636;BME280;17400;52.392;9.750;2023-10-19T05:57:26;99035.75;;;7.50;100.00
30636;BME280;17400;52.392;9.750;2023-10-19T05:59:55;99029.50;;;7.56;100.00
30636;BME280;17400;52.392;9.750;2023-10-19T06:02:23;99043.00;;;7.49;100.00
30636;BME280;17400;52.392;9.750;2023-10-19T06:04:59;99048.56;;;7.55;100.00
30636;BME280;17400;52.392;9.750;2023-10-19T06:07:27;99040.03;;;7.58;100.00
30636;BME280;17400;52.392;9.750;2023-10-19T06:09:57;99037.56;;;7.56;100.00
30636;BME280;17400;52.392;9.750;2023-10-19T06:12:27;99037.00;;;7.47;100.00
30636;BME280;17400;52.392;9.750;2023-10-19T06:14:55;99038.53;;;7.37;100.00
30636;BME280;17400;52.392;9.750;2023-10-19T06:17:23;99041.78;;;7.45;100.00
30636;BME280;17400;52.392;9.750;2023-10-19T06:19:51;99029.84;;;7.34;100.00
30636;BME280;17400;52.392;9.750;2023-10-19T06:22:21;99035.78;;;7.43;100.00
30636;BME280;17400;52.392;9.750;2023-10-19T06:24:50;99030.66;;;7.35;100.00
30636;BME280;17400;52.392;9.750;2023-10-19T06:27:19;99033.16;;;7.37;100.00
30636;BME280;17400;52.392;9.750;2023-10-19T06:29:47;99021.78;;;7.34;100.00
30636;BME280;17400;52.392;9.750;2023-10-19T06:32:18;99032.78;;;7.33;100.00
30636;BME280;17400;52.392;9.750;2023-10-19T06:34:46;99024.69;;;7.33;100.00
30636;BME280;17400;52.392;9.750;2023-10-19T06:37:15;99033.16;;;7.37;100.00
30636;BME280;17400;52.392;9.750;2023-10-19T06:39:43;99024.06;;;7.31;100.00
30636;BME280;17400;52.392;9.750;2023-10-19T06:42:11;99020.34;;;7.32;100.00
30636;BME280;17400;52.392;9.750;2023-10-19T06:44:42;99029.91;;;7.28;100.00
30636;BME280;17400;52.392;9.750;2023-10-19T06:47:11;99025.72;;;7.32;100.00
30636;BME280;17400;52.392;9.750;2023-10-19T06:49:40;99031.75;;;7.27;100.00
30636;BME280;17400;52.392;9.750;2023-10-19T06:52:08;99026.56;;;7.32;100.00
30636;BME280;17400;52.392;9.750;2023-10-19T06:54:38;99027.38;;;7.33;100.00
30636;BME280;17400;52.392;9.750;2023-10-19T06:57:06;99037.72;;;7.36;100.00
30636;BME280;17400;52.392;9.750;2023-10-19T06:59:36;99030.16;;;7.52;100.00
30636;BME280;17400;52.392;9.750;2023-10-19T07:02:05;99021.28;;;7.44;100.00
30636;BME280;17400;52.392;9.750;2023-10-19T07:04:34;99027.72;;;7.43;100.00
30636;BME280;17400;52.392;9.750;2023-10-19T07:07:03;99015.47;;;7.47;100.00
30636;BME280;17400;52.392;9.750;2023-10-19T07:09:31;99022.72;;;7.47;100.00
30636;BME280;17400;52.392;9.750;2023-10-19T07:12:01;99025.00;;;7.43;100.00
30636;BME280;17400;52.392;9.750;2023-10-19T07:14:29;99016.13;;;7.43;100.00
30636;BME280;17400;52.392;9.750;2023-10-19T07:16:57;99027.53;;;7.45;100.00
30636;BME280;17400;52.392;9.750;2023-10-19T07:19:27;99021.56;;;7.36;100.00
30636;BME280;17400;52.392;9.750;2023-10-19T07:21:56;99030.66;;;7.35;100.00
30636;BME280;17400;52.392;9.750;2023-10-19T07:24:25;99021.59;;;7.29;100.00
30636;BME280;17400;52.392;9.750;2023-10-19T07:26:53;99025.50;;;7.33;100.00
30636;BME280;17400;52.392;9.750;2023-10-19T07:29:31;99023.44;;;7.36;100.00
30636;BME280;17400;52.392;9.750;2023-10-19T07:32:00;99018.69;;;7.31;100.00
30636;BME280;17400;52.392;9.750;2023-10-19T07:34:33;99029.84;;;7.34;100.00
30636;BME280;17400;52.392;9.750;2023-10-19T07:37:01;99035.47;;;7.33;100.00
30636;BME280;17400;52.392;9.750;2023-10-19T07:39:30;99030.00;;;7.46;100.00
30636;BME280;17400;52.392;9.750;2023-10-19T07:42:00;99030.16;;;7.52;100.00
30636;BME280;17400;52.392;9.750;2023-10-19T07:44:31;99027.88;;;7.48;100.00
30636;BME280;17400;52.392;9.750;2023-10-19T07:46:59;99038.66;;;7.48;100.00
30636;BME280;17400;52.392;9.750;2023-10-19T07:49:27;99032.00;;;7.51;100.00
30636;BME280;17400;52.392;9.750;2023-10-19T07:51:57;99028.09;;;7.47;100.00
30636;BME280;17400;52.392;9.750;2023-10-19T07:54:25;99021.47;;;7.49;100.00
30636;BME280;17400;52.392;9.750;2023-10-19T07:56:54;99025.31;;;7.60;100.00
30636;BME280;17400;52.392;9.750;2023-10-19T07:59:24;99017.00;;;7.62;100.00
30636;BME280;17400;52.392;9.750;2023-10-19T08:01:52;99019.34;;;7.58;100.00
30636;BME280;17400;52.392;9.750;2023-10-19T08:04:20;99019.69;;;7.62;100.00
30636;BME280;17400;52.392;9.750;2023-10-19T08:06:48;99020.50;;;7.69;100.00
30636;BME280;17400;52.392;9.750;2023-10-19T08:09:17;99026.28;;;7.73;100.00
30636;BME280;17400;52.392;9.750;2023-10-19T08:11:50;99025.81;;;7.76;100.00
30636;BME280;17400;52.392;9.750;2023-10-19T08:14:22;99022.50;;;7.74;100.00
30636;BME280;17400;52.392;9.750;2023-10-19T08:16:51;99021.69;;;7.73;100.00
30636;BME280;17400;52.392;9.750;2023-10-19T08:19:20;99022.09;;;7.77;100.00
30636;BME280;17400;52.392;9.750;2023-10-19T08:21:48;99014.25;;;7.68;100.00
30636;BME280;17400;52.392;9.750;2023-10-19T08:24:17;99013.44;;;7.68;100.00
30636;BME280;17400;52.392;9.750;2023-10-19T08:26:45;99000.53;;;7.77;100.00
30636;BME280;17400;52.392;9.750;2023-10-19T08:29:13;99016.63;;;7.83;100.00
30636;BME280;17400;52.392;9.750;2023-10-19T08:31:42;99019.09;;;7.85;100.00
30636;BME280;17400;52.392;9.750;2023-10-19T08:34:11;99022.78;;;7.91;100.00
30636;BME280;17400;52.392;9.750;2023-10-19T08:36:41;99021.56;;;7.87;100.00
30636;BME280;17400;52.392;9.750;2023-10-19T08:39:10;99024.03;;;7.88;100.00
30636;BME280;17400;52.392;9.750;2023-10-19T08:41:41;99030.03;;;7.90;100.00
30636;BME280;17400;52.392;9.750;2023-10-19T08:44:09;99034.34;;;7.98;100.00
30636;BME280;17400;52.392;9.750;2023-10-19T08:46:40;99029.81;;;7.92;100.00
30636;BME280;17400;52.392;9.750;2023-10-19T08:49:11;99030.56;;;7.99;100.00
30636;BME280;17400;52.392;9.750;2023-10-19T08:51:40;99023.72;;;8.03;100.00
30636;BME280;17400;52.392;9.750;2023-10-19T08:54:11;99033.88;;;8.01;100.00
30636;BME280;17400;52.392;9.750;2023-10-19T08:56:42;99029.09;;;8.03;100.00
30636;BME280;17400;52.392;9.750;2023-10-19T08:59:11;99023.72;;;8.03;100.00
30636;BME280;17400;52.392;9.750;2023-10-19T09:01:39;99018.34;;;8.03;100.00
30636;BME280;17400;52.392;9.750;2023-10-19T09:04:09;99014.03;;;7.95;100.00
30636;BME280;17400;52.392;9.750;2023-10-19T09:06:38;99022.06;;;8.02;100.00
30636;BME280;17400;52.392;9.750;2023-10-19T09:09:09;99011.88;;;8.04;100.00
30636;BME280;17400;52.392;9.750;2023-10-19T09:11:44;99010.75;;;8.12;100.00
30636;BME280;17400;52.392;9.750;2023-10-19T09:14:13;99007.25;;;8.11;100.00
30636;BME280;17400;52.392;9.750;2023-10-19T09:16:54;99006.56;;;8.16;100.00
30636;BME280;17400;52.392;9.750;2023-10-19T09:19:38;98996.63;;;8.16;100.00
30636;BME280;17400;52.392;9.750;2023-10-19T09:22:07;98998.78;;;8.26;100.00
30636;BME280;17400;52.392;9.750;2023-10-19T09:24:44;98998.13;;;8.31;100.00
30636;BME280;17400;52.392;9.750;2023-10-19T09:27:13;98994.09;;;8.40;100.00
30636;BME280;17400;52.392;9.750;2023-10-19T09:29:44;98992.16;;;8.47;100.00
30636;BME280;17400;52.392;9.750;2023-10-19T09:32:12;99009.09;;;8.55;100.00
30636;BME280;17400;52.392;9.750;2023-10-19T09:34:43;99005.72;;;8.59;100.00
30636;BME280;17400;52.392;9.750;2023-10-19T09:37:11;98999.72;;;8.57;100.00
30636;BME280;17400;52.392;9.750;2023-10-19T09:39:40;98990.88;;;8.69;100.00
30636;BME280;17400;52.392;9.750;2023-10-19T09:42:11;98991.69;;;8.69;100.00
30636;BME280;17400;52.392;9.750;2023-10-19T09:44:45;98997.53;;;8.66;100.00
30636;BME280;17400;52.392;9.750;2023-10-19T09:47:18;98992.94;;;8.66;100.00
30636;BME280;17400;52.392;9.750;2023-10-19T09:49:48;98982.78;;;8.69;100.00
30636;BME280;17400;52.392;9.750;2023-10-19T09:52:17;98981.63;;;8.76;100.00
30636;BME280;17400;52.392;9.750;2023-10-19T09:54:52;98984.47;;;8.81;100.00
30636;BME280;17400;52.392;9.750;2023-10-19T09:57:27;98988.84;;;8.82;100.00
30636;BME280;17400;52.392;9.750;2023-10-19T10:00:03;98995.19;;;8.88;100.00
30636;BME280;17400;52.392;9.750;2023-10-19T10:02:39;98996.38;;;8.92;100.00
30636;BME280;17400;52.392;9.750;2023-10-19T10:08:29;98994.00;;;8.84;100.00
30636;BME280;17400;52.392;9.750;2023-10-19T10:10:57;98990.25;;;8.85;100.00
30636;BME280;17400;52.392;9.750;2023-10-19T10:13:46;98987.31;;;8.87;100.00
30636;BME280;17400;52.392;9.750;2023-10-19T10:16:22;98987.22;;;8.93;100.00
30636;BME280;17400;52.392;9.750;2023-10-19T10:18:54;98990.25;;;8.85;100.00
30636;BME280;17400;52.392;9.750;2023-10-19T10:21:26;98997.28;;;8.86;100.00
30636;BME280;17400;52.392;9.750;2023-10-19T10:23:56;98982.38;;;8.83;100.00
30636;BME280;17400;52.392;9.750;2023-10-19T10:26:27;98972.66;;;8.82;100.00
30636;BME280;17400;52.392;9.750;2023-10-19T10:29:08;98966.06;;;8.90;100.00
30636;BME280;17400;52.392;9.750;2023-10-19T10:31:44;98977.25;;;8.94;100.00
30636;BME280;17400;52.392;9.750;2023-10-19T10:34:43;98983.84;;;8.98;100.00
30636;BME280;17400;52.392;9.750;2023-10-19T10:37:12;98971.47;;;8.90;100.00
30636;BME280;17400;52.392;9.750;2023-10-19T10:39:41;98965.28;;;8.90;100.00
30636;BME280;17400;52.392;9.750;2023-10-19T10:42:12;98972.47;;;8.96;100.00
30636;BME280;17400;52.392;9.750;2023-10-19T10:44:43;98971.84;;;8.94;100.00
30636;BME280;17400;52.392;9.750;2023-10-19T10:47:16;98961.66;;;8.96;100.00
30636;BME280;17400;52.392;9.750;2023-10-19T10:49:52;98964.94;;;8.98;100.00
30636;BME280;17400;52.392;9.750;2023-10-19T10:52:25;98952.81;;;8.89;100.00
30636;BME280;17400;52.392;9.750;2023-10-19T10:54:53;98945.34;;;8.91;100.00
30636;BME280;17400;52.392;9.750;2023-10-19T10:57:21;98944.41;;;8.97;100.00
30636;BME280;17400;52.392;9.750;2023-10-19T11:00:01;98951.69;;;8.96;100.00
30636;BME280;17400;52.392;9.750;2023-10-19T11:02:32;98946.97;;;8.92;100.00
30636;BME280;17400;52.392;9.750;2023-10-19T11:05:01;98946.03;;;8.98;100.00
30636;BME280;17400;52.392;9.750;2023-10-19T11:07:29;98942.91;;;9.01;100.00
30636;BME280;17400;52.392;9.750;2023-10-19T11:09:58;98945.13;;;9.04;100.00
30636;BME280;17400;52.392;9.750;2023-10-19T11:12:28;98943.25;;;9.05;100.00
30636;BME280;17400;52.392;9.750;2023-10-19T11:14:57;98944.31;;;9.04;100.00
30636;BME280;17400;52.392;9.750;2023-10-19T11:17:28;98943.38;;;9.10;100.00
30636;BME280;17400;52.392;9.750;2023-10-19T11:19:59;98947.97;;;9.09;100.00
30636;BME280;17400;52.392;9.750;2023-10-19T11:22:27;98942.09;;;9.12;100.00
30636;BME280;17400;52.392;9.750;2023-10-19T11:24:55;98945.03;;;9.11;100.00
30636;BME280;17400;52.392;9.750;2023-10-19T11:27:43;98944.22;;;9.10;100.00
30636;BME280;17400;52.392;9.750;2023-10-19T11:30:12;98946.44;;;9.13;100.00
30636;BME280;17400;52.392;9.750;2023-10-19T11:32:40;98950.31;;;9.17;100.00
30636;BME280;17400;52.392;9.750;2023-10-19T11:35:10;98944.00;;;9.24;100.00
30636;BME280;17400;52.392;9.750;2023-10-19T11:37:46;98938.38;;;9.25;100.00
30636;BME280;17400;52.392;9.750;2023-10-19T11:40:14;98937.78;;;9.23;100.00
30636;BME280;17400;52.392;9.750;2023-10-19T11:42:42;98944.81;;;9.24;100.00
30636;BME280;17400;52.392;9.750;2023-10-19T11:45:10;98945.88;;;9.23;100.00
30636;BME280;17400;52.392;9.750;2023-10-19T11:47:39;98939.19;;;9.26;100.00
30636;BME280;17400;52.392;9.750;2023-10-19T11:50:09;98937.22;;;9.33;100.00
30636;BME280;17400;52.392;9.750;2023-10-19T11:52:41;98924.06;;;9.37;100.00
30636;BME280;17400;52.392;9.750;2023-10-19T11:55:09;98922.19;;;9.37;100.00
30636;BME280;17400;52.392;9.750;2023-10-19T11:57:40;98935.81;;;9.42;100.00
30636;BME280;17400;52.392;9.750;2023-10-19T12:00:11;98944.72;;;9.43;100.00
30636;BME280;17400;52.392;9.750;2023-10-19T12:02:46;98953.88;;;9.42;100.00
30636;BME280;17400;52.392;9.750;2023-10-19T12:05:16;98946.38;;;9.44;100.00
30636;BME280;17400;52.392;9.750;2023-10-19T12:07:44;98941.22;;;9.42;100.00
30636;BME280;17400;52.392;9.750;2023-10-19T12:10:13;98941.22;;;9.42;100.00
30636;BME280;17400;52.392;9.750;2023-10-19T12:12:41;98942.16;;;9.36;100.00
30636;BME280;17400;52.392;9.750;2023-10-19T12:15:26;98943.19;;;9.35;100.00
30636;BME280;17400;52.392;9.750;2023-10-19T12:17:54;98938.41;;;9.37;100.00
30636;BME280;17400;52.392;9.750;2023-10-19T12:20:24;98944.72;;;9.43;100.00
30636;BME280;17400;52.392;9.750;2023-10-19T12:22:53;98942.88;;;9.43;100.00
30636;BME280;17400;52.392;9.750;2023-10-19T12:25:22;98941.09;;;9.37;100.00
30636;BME280;17400;52.392;9.750;2023-10-19T12:28:00;98930.88;;;9.39;100.00
30636;BME280;17400;52.392;9.750;2023-10-19T12:30:31;98925.13;;;9.36;100.00
30636;BME280;17400;52.392;9.750;2023-10-19T12:33:04;98922.56;;;9.41;100.00
30636;BME280;17400;52.392;9.750;2023-10-19T12:35:36;98932.06;;;9.43;100.00
30636;BME280;17400;52.392;9.750;2023-10-19T12:38:16;98919.97;;;9.46;100.00
30636;BME280;17400;52.392;9.750;2023-10-19T12:40:45;98917.97;;;9.41;100.00
30636;BME280;17400;52.392;9.750;2023-10-19T12:43:14;98923.59;;;9.40;100.00
30636;BME280;17400;52.392;9.750;2023-10-19T12:45:45;98921.72;;;9.40;100.00
30636;BME280;17400;52.392;9.750;2023-10-19T12:48:17;98927.25;;;9.45;100.00
30636;BME280;17400;52.392;9.750;2023-10-19T12:50:46;98927.97;;;9.53;100.00
30636;BME280;17400;52.392;9.750;2023-10-19T12:53:14;98917.25;;;9.58;100.00
30636;BME280;17400;52.392;9.750;2023-10-19T12:55:42;98926.31;;;9.63;100.00
30636;BME280;17400;52.392;9.750;2023-10-19T12:58:11;98927.38;;;9.62;100.00
30636;BME280;17400;52.392;9.750;2023-10-19T13:00:41;98925.03;;;9.54;100.00
30636;BME280;17400;52.392;9.750;2023-10-19T13:03:12;98925.72;;;9.49;100.00
30636;BME280;17400;52.392;9.750;2023-10-19T13:05:43;98921.03;;;9.45;100.00
30636;BME280;17400;52.392;9.750;2023-10-19T13:08:15;98909.63;;;9.31;100.00
30636;BME280;17400;52.392;9.750;2023-10-19T13:10:44;98914.31;;;9.36;100.00
30636;BME280;17400;52.392;9.750;2023-10-19T13:13:13;98906.69;;;9.44;100.00
30636;BME280;17400;52.392;9.750;2023-10-19T13:15:42;98916.81;;;9.49;100.00
30636;BME280;17400;52.392;9.750;2023-10-19T13:18:12;98911.41;;;9.49;100.00
30636;BME280;17400;52.392;9.750;2023-10-19T13:20:47;98904.94;;;9.50;100.00